Impacts TAF Board
For situational awareness. Not to be used for flight planning purposes.
IDs:

KMSP - Minneapolis-St Paul, MN, US

Issued at 1447 UTC 01 Mar 2021
Updated at 1629 UTC 01 Mar 2021
Potential Impact None Slight Moderate High
Time1553Z 01/17Z 01/18Z 01/19Z 01/20Z 01/21Z 01/22Z 01/23Z 02/00Z 02/01Z 02/02Z 02/03Z 02/04Z 02/05Z>>
Type OBS PRVL PRVL PRVL PRVL PRVL PRVL PRVL PRVL PRVL PRVL PRVL PRVL PRVL
VIS 10 >6 >6 >6 >6 >6 >6 >6 >6 >6 >6 >6 >6 >6
CIG -- -- -- -- -- -- -- -- -- -- -- -- -- --
Cover CLR SKC SKC SKC SKC SKC SKC SKC SKC SKC SKC SKC SKC SKC
FltCat VFR VFR VFR VFR VFR VFR VFR VFR VFR VFR VFR VFR VFR VFR
WX -- -- -- -- -- -- -- -- -- -- -- -- -- --
WDir 20 350 350 350 350 350 240 240 240 240 160 160 160 160
WSpd 7 9 9 9 9 9 4 4 4 4 5 5 5 5
WGst -- -- -- -- -- -- -- -- -- -- -- -- -- --
Raw TAF
KMSP 011447Z 0115/0218 35009KT P6SM SKC
  FM012200 24004KT P6SM SKC
  FM020200 16005KT P6SM SKC
  FM021300 19012G25KT P6SM SKC WS020/23040KT


Raw METAR
KMSP 011553Z 02007KT 10SM CLR M09/M15 A3038 RMK AO2 SLP305 T10891150
KMSP 011453Z 02012KT 10SM CLR M09/M14 A3036 RMK AO2 SLP297 T10941144 51039
KMSP 011353Z 36011KT 10SM CLR M10/M14 A3033 RMK AO2 SLP287 T11001144

METAR Board
Radar Display
Forecast Discussion
For situational awareness. Not to be used for flight planning purposes.